Time;durP1;ratioP1;P1;durP2;ratioP2;P2;SDS_P1;SDS_P2;PMS_P1;PMS_P2;Temp;Humidity;BMP_temperature;BMP_pressure;BME280_temperature;BME280_humidity;BME280_pressure;Samples;Min_cycle;Max_cycle;Signal;HPM_P1;HPM_P2
2022/07/16 00:02:53;;;;;;;4.23;2.60;;;13.70;99.90;;;;;;5019925;28;20439;-59
2022/07/16 00:05:20;;;;;;;3.77;3.33;;;13.70;99.90;;;;;;5019962;28;20578;-57
2022/07/16 00:07:51;;;;;;;3.93;3.43;;;13.70;99.90;;;;;;5020178;28;20464;-59
2022/07/16 00:10:18;;;;;;;2.90;2.57;;;13.70;99.90;;;;;;5019150;28;20474;-59
2022/07/16 00:12:46;;;;;;;4.60;3.13;;;13.80;99.90;;;;;;5019959;28;20518;-58
2022/07/16 00:15:13;;;;;;;3.87;2.40;;;13.80;99.90;;;;;;5019891;28;20818;-57
2022/07/16 00:17:41;;;;;;;3.67;2.90;;;13.90;99.90;;;;;;5020011;28;20566;-60
2022/07/16 00:20:08;;;;;;;4.73;3.20;;;13.80;99.90;;;;;;5019623;28;20464;-57
2022/07/16 00:22:36;;;;;;;3.83;3.37;;;13.90;99.90;;;;;;5019688;28;20464;-55
2022/07/16 00:25:06;;;;;;;8.40;3.43;;;13.90;99.90;;;;;;5019825;28;20952;-58
2022/07/16 00:27:34;;;;;;;6.50;3.90;;;13.90;99.90;;;;;;5019327;28;20842;-60
2022/07/16 00:30:02;;;;;;;4.80;3.30;;;13.90;99.90;;;;;;5018721;28;20752;-58
2022/07/16 00:32:29;;;;;;;4.20;3.77;;;14.00;99.90;;;;;;5019297;28;20570;-57
2022/07/16 00:34:56;;;;;;;8.93;3.17;;;14.00;99.90;;;;;;5019175;28;20464;-56
2022/07/16 00:37:23;;;;;;;4.00;3.60;;;13.90;99.90;;;;;;5019175;28;20487;-60
2022/07/16 00:39:51;;;;;;;5.33;3.60;;;13.80;99.90;;;;;;5019093;28;20475;-59
2022/07/16 00:42:20;;;;;;;4.33;2.80;;;13.80;99.90;;;;;;5019164;28;20522;-59
2022/07/16 00:44:47;;;;;;;5.10;3.20;;;13.90;99.90;;;;;;5019294;28;20558;-58
2022/07/16 00:47:14;;;;;;;4.57;3.70;;;13.90;99.90;;;;;;5019199;28;20790;-59
2022/07/16 00:49:42;;;;;;;4.23;3.33;;;13.90;99.90;;;;;;5018489;28;20495;-57
2022/07/16 00:52:11;;;;;;;6.67;2.90;;;13.90;99.90;;;;;;5019122;28;20476;-60
2022/07/16 00:54:38;;;;;;;3.87;3.10;;;13.90;99.90;;;;;;5019393;28;20501;-55
2022/07/16 00:57:07;;;;;;;7.13;3.20;;;13.80;99.90;;;;;;5018455;28;20464;-60
2022/07/16 00:59:37;;;;;;;5.40;3.10;;;13.80;99.90;;;;;;5018690;28;21007;-60
2022/07/16 01:02:06;;;;;;;3.63;3.30;;;13.80;99.90;;;;;;5018774;28;20845;-59
2022/07/16 01:04:35;;;;;;;3.80;3.40;;;13.80;99.90;;;;;;5018830;28;20559;-60
2022/07/16 01:07:03;;;;;;;3.97;3.67;;;13.80;99.90;;;;;;5018240;28;20547;-60
2022/07/16 01:09:34;;;;;;;4.20;2.97;;;13.80;99.90;;;;;;5017929;28;20496;-59
2022/07/16 01:12:01;;;;;;;5.50;3.87;;;13.70;99.90;;;;;;5018230;28;20561;-60
2022/07/16 01:14:32;;;;;;;3.63;3.33;;;13.60;99.90;;;;;;5018632;28;20850;-60
2022/07/16 01:17:01;;;;;;;4.43;3.00;;;13.60;99.90;;;;;;5016836;28;20763;-60
2022/07/16 01:19:28;;;;;;;4.00;3.30;;;13.50;99.90;;;;;;5018593;28;20495;-58
2022/07/16 01:21:59;;;;;;;4.00;3.20;;;13.50;99.90;;;;;;5018793;28;20488;-57
2022/07/16 01:24:31;;;;;;;3.87;3.47;;;13.40;99.90;;;;;;5018863;28;20477;-60
2022/07/16 01:27:00;;;;;;;5.43;3.70;;;13.40;99.90;;;;;;5018771;28;20583;-60
2022/07/16 01:29:29;;;;;;;5.13;3.70;;;13.40;99.90;;;;;;5018397;28;20559;-60
2022/07/16 01:31:59;;;;;;;8.13;3.83;;;13.40;99.90;;;;;;5018527;28;20567;-60
2022/07/16 01:34:29;;;;;;;6.00;3.60;;;13.30;99.90;;;;;;5018244;28;20842;-60
2022/07/16 01:37:01;;;;;;;4.07;3.60;;;13.30;99.90;;;;;;5018435;28;20566;-57
2022/07/16 01:39:33;;;;;;;5.67;3.67;;;13.20;99.90;;;;;;5017421;28;20555;-56
2022/07/16 01:42:12;;;;;;;3.67;3.37;;;13.20;99.90;;;;;;5017571;28;20506;-58
2022/07/16 01:44:42;;;;;;;4.50;3.30;;;13.20;99.90;;;;;;5018456;28;20470;-60
2022/07/16 01:47:13;;;;;;;5.37;3.93;;;13.20;99.90;;;;;;5018251;28;20491;-56
2022/07/16 01:49:40;;;;;;;4.60;2.93;;;13.20;99.90;;;;;;5017564;28;20571;-57
2022/07/16 01:52:09;;;;;;;4.33;3.40;;;13.20;99.90;;;;;;5018030;28;20498;-59
2022/07/16 01:54:43;;;;;;;4.47;3.10;;;13.20;99.90;;;;;;5018310;28;20559;-60
2022/07/16 01:57:13;;;;;;;4.73;4.13;;;13.20;99.90;;;;;;5017953;28;20885;-60
2022/07/16 01:59:40;;;;;;;3.57;3.27;;;13.30;99.90;;;;;;5017152;28;20606;-60
2022/07/16 02:02:08;;;;;;;3.97;3.40;;;13.20;99.90;;;;;;5017855;28;20473;-60
2022/07/16 02:04:36;;;;;;;4.40;3.93;;;13.10;99.90;;;;;;5017956;28;20460;-57
2022/07/16 02:07:03;;;;;;;4.17;3.77;;;13.10;99.90;;;;;;5017948;28;20583;-59
2022/07/16 02:09:30;;;;;;;6.87;3.43;;;13.00;99.90;;;;;;5017384;28;20515;-59
2022/07/16 02:12:02;;;;;;;6.33;3.07;;;13.00;99.90;;;;;;5017814;28;20558;-60
2022/07/16 02:14:30;;;;;;;5.67;4.10;;;13.00;99.90;;;;;;5017730;28;20575;-58
2022/07/16 02:16:57;;;;;;;7.50;3.50;;;13.00;99.90;;;;;;5017637;28;20831;-59
2022/07/16 02:19:27;;;;;;;4.50;3.77;;;13.00;99.90;;;;;;5018022;28;20468;-59
2022/07/16 02:21:55;;;;;;;4.13;3.43;;;12.90;99.90;;;;;;5017714;28;20563;-59
2022/07/16 02:24:23;;;;;;;5.00;3.27;;;12.90;99.90;;;;;;5017209;28;20956;-58
2022/07/16 02:26:50;;;;;;;3.80;3.50;;;13.00;99.90;;;;;;5017505;28;20587;-60
2022/07/16 02:29:19;;;;;;;3.43;3.13;;;13.00;99.90;;;;;;5016377;28;20558;-60
2022/07/16 02:31:46;;;;;;;4.80;3.33;;;12.90;99.90;;;;;;5017286;28;20443;-59
2022/07/16 02:34:13;;;;;;;5.10;3.30;;;13.00;99.90;;;;;;5017519;28;20468;-60
2022/07/16 02:36:41;;;;;;;4.57;3.63;;;13.00;99.90;;;;;;5017141;28;20514;-60
2022/07/16 02:39:08;;;;;;;3.87;3.57;;;13.00;99.90;;;;;;5017557;28;20779;-59
2022/07/16 02:41:35;;;;;;;4.87;3.33;;;13.00;99.90;;;;;;5017454;28;20554;-60
2022/07/16 02:44:03;;;;;;;5.60;4.10;;;13.10;99.90;;;;;;5016970;28;20558;-60
2022/07/16 02:46:31;;;;;;;4.00;3.47;;;13.00;99.90;;;;;;5017779;28;20770;-56
2022/07/16 02:48:59;;;;;;;4.87;3.87;;;13.10;99.90;;;;;;5017398;28;20571;-57
2022/07/16 02:51:27;;;;;;;5.73;4.33;;;13.00;99.90;;;;;;5017408;28;20468;-60
2022/07/16 02:53:54;;;;;;;4.43;3.50;;;13.00;99.90;;;;;;5017309;28;20534;-57
2022/07/16 02:56:24;;;;;;;4.07;3.70;;;13.00;99.90;;;;;;5017119;28;20459;-60
2022/07/16 02:58:53;;;;;;;5.50;3.47;;;13.10;99.90;;;;;;5016775;28;20570;-59
2022/07/16 03:01:20;;;;;;;3.70;3.40;;;13.10;99.90;;;;;;5016756;28;20546;-60
2022/07/16 03:03:49;;;;;;;4.23;3.83;;;13.20;99.90;;;;;;5017067;28;20570;-60
2022/07/16 03:06:16;;;;;;;4.00;3.60;;;13.10;99.90;;;;;;5017237;28;20587;-58
2022/07/16 03:08:47;;;;;;;5.60;4.43;;;13.20;99.90;;;;;;5017502;28;20810;-60
2022/07/16 03:11:14;;;;;;;4.17;3.77;;;13.20;99.90;;;;;;5017861;28;20445;-59
2022/07/16 03:13:41;;;;;;;7.60;3.73;;;13.20;99.90;;;;;;5020684;28;20468;-58
2022/07/16 03:16:09;;;;;;;3.93;3.53;;;13.20;99.90;;;;;;5020755;28;20445;-60
2022/07/16 03:18:37;;;;;;;5.00;3.63;;;13.20;99.90;;;;;;5020718;28;20497;-60
2022/07/16 03:21:06;;;;;;;4.67;3.70;;;13.20;99.90;;;;;;5020425;28;20484;-59
2022/07/16 03:23:36;;;;;;;5.57;3.93;;;13.30;99.90;;;;;;5020564;28;20498;-59
2022/07/16 03:26:05;;;;;;;5.83;3.63;;;13.30;99.90;;;;;;5020192;28;20487;-60
2022/07/16 03:28:32;;;;;;;4.60;3.77;;;13.30;99.90;;;;;;5020310;28;20563;-60
2022/07/16 03:30:59;;;;;;;4.73;3.87;;;13.40;99.90;;;;;;5020655;28;20471;-58
2022/07/16 03:33:26;;;;;;;5.83;4.13;;;13.40;99.90;;;;;;5020444;28;20463;-60
2022/07/16 03:35:54;;;;;;;7.03;4.37;;;13.30;99.90;;;;;;5020565;28;20830;-60
2022/07/16 03:41:07;;;;;;;5.50;3.40;;;13.50;99.90;;;;;;5020509;28;20443;-56
2022/07/16 03:43:35;;;;;;;7.20;4.10;;;13.50;99.90;;;;;;5020336;28;20935;-56
2022/07/16 03:46:02;;;;;;;4.90;3.93;;;13.60;99.90;;;;;;5020427;28;20875;-60
2022/07/16 03:48:29;;;;;;;6.03;3.97;;;13.60;99.90;;;;;;5020342;28;20470;-60
2022/07/16 03:50:56;;;;;;;4.17;3.87;;;13.60;99.90;;;;;;5020705;28;20470;-59
2022/07/16 03:53:31;;;;;;;4.90;3.53;;;13.60;99.90;;;;;;5020048;28;20561;-60
2022/07/16 03:56:01;;;;;;;8.03;4.60;;;13.70;99.90;;;;;;5020300;28;20740;-60
2022/07/16 03:58:29;;;;;;;5.77;4.00;;;13.70;99.90;;;;;;5020191;28;20563;-59
2022/07/16 04:00:59;;;;;;;4.80;4.00;;;13.70;99.90;;;;;;5020106;28;20968;-60
2022/07/16 04:03:29;;;;;;;5.87;4.70;;;13.80;99.90;;;;;;5019666;28;20460;-59
2022/07/16 04:05:56;;;;;;;4.43;3.83;;;13.90;99.90;;;;;;5019777;28;20842;-60
2022/07/16 04:08:27;;;;;;;5.40;3.90;;;13.80;99.90;;;;;;5019734;28;20570;-60
2022/07/16 04:10:54;;;;;;;4.27;3.87;;;13.80;99.90;;;;;;5019360;28;20546;-58
2022/07/16 04:13:22;;;;;;;6.20;3.87;;;13.80;99.90;;;;;;5019571;28;20570;-59
2022/07/16 04:15:51;;;;;;;3.67;3.03;;;13.70;99.90;;;;;;5019887;28;20936;-60
2022/07/16 04:18:19;;;;;;;4.33;3.90;;;13.80;99.90;;;;;;5019704;28;20555;-60
2022/07/16 04:20:48;;;;;;;5.50;3.80;;;13.90;99.90;;;;;;5019787;28;20897;-58
2022/07/16 04:23:19;;;;;;;6.43;4.63;;;14.00;99.90;;;;;;5018164;28;20529;-60
2022/07/16 04:25:50;;;;;;;5.20;4.43;;;14.00;99.90;;;;;;5019563;28;20745;-60
2022/07/16 04:28:18;;;;;;;9.23;4.90;;;14.10;99.90;;;;;;5019404;28;20502;-56
2022/07/16 04:30:46;;;;;;;10.20;4.43;;;14.20;99.90;;;;;;5019315;28;20881;-60
2022/07/16 04:33:13;;;;;;;4.67;3.90;;;14.30;99.90;;;;;;5019274;28;20537;-60
2022/07/16 04:35:40;;;;;;;5.60;4.00;;;14.30;99.90;;;;;;5019236;28;20464;-60
2022/07/16 04:38:07;;;;;;;4.30;3.73;;;14.40;99.90;;;;;;5019190;28;20563;-58
2022/07/16 04:40:37;;;;;;;5.43;4.03;;;14.40;99.90;;;;;;5019276;28;20497;-60
2022/07/16 04:43:06;;;;;;;5.27;3.97;;;14.50;99.90;;;;;;5019586;28;20519;-60
2022/07/16 04:45:33;;;;;;;4.23;3.83;;;14.50;99.90;;;;;;5019070;28;20567;-60
2022/07/16 04:48:02;;;;;;;5.13;4.07;;;14.60;99.90;;;;;;5018823;28;20477;-58
2022/07/16 04:50:32;;;;;;;5.60;3.80;;;14.60;99.90;;;;;;5019345;28;20503;-60
2022/07/16 04:52:59;;;;;;;6.50;4.13;;;14.70;99.90;;;;;;5019362;28;20465;-60
2022/07/16 04:55:27;;;;;;;7.00;4.20;;;14.70;99.90;;;;;;5018796;28;20523;-60
2022/07/16 04:57:57;;;;;;;4.50;3.93;;;14.70;99.90;;;;;;5018843;28;20531;-60
2022/07/16 05:00:29;;;;;;;4.13;3.70;;;14.80;99.90;;;;;;5017724;28;20523;-60
2022/07/16 05:03:00;;;;;;;9.57;4.23;;;14.80;99.90;;;;;;5017786;28;20479;-58
2022/07/16 05:05:29;;;;;;;4.33;3.93;;;15.00;99.90;;;;;;5017678;28;20469;-60
2022/07/16 05:07:57;;;;;;;4.97;3.80;;;15.00;99.90;;;;;;5018161;28;20495;-59
2022/07/16 05:10:24;;;;;;;4.67;4.17;;;15.00;99.90;;;;;;5018839;28;20769;-60
2022/07/16 05:12:52;;;;;;;8.40;4.50;;;15.10;99.90;;;;;;5018982;28;20546;-60
2022/07/16 05:15:19;;;;;;;4.47;4.07;;;15.20;99.90;;;;;;5018500;28;20434;-60
2022/07/16 05:17:49;;;;;;;8.00;4.80;;;15.40;99.90;;;;;;5018804;28;20510;-60
2022/07/16 05:20:16;;;;;;;7.20;4.30;;;15.50;99.90;;;;;;5019010;28;20542;-60
2022/07/16 05:22:45;;;;;;;5.10;4.00;;;15.60;99.90;;;;;;5018562;28;20948;-59
2022/07/16 05:25:13;;;;;;;4.73;4.00;;;15.70;99.90;;;;;;5018905;28;20431;-61
2022/07/16 05:27:41;;;;;;;4.17;3.77;;;15.90;99.90;;;;;;5017764;28;20537;-61
2022/07/16 05:30:11;;;;;;;5.37;4.00;;;16.00;99.90;;;;;;5018128;28;20810;-61
2022/07/16 05:32:38;;;;;;;6.43;4.13;;;16.10;99.90;;;;;;5018630;28;20802;-61
2022/07/16 05:35:11;;;;;;;6.67;5.40;;;16.00;99.90;;;;;;5018221;28;20470;-61
2022/07/16 05:37:40;;;;;;;7.10;3.93;;;16.20;99.90;;;;;;5017374;28;20488;-60
2022/07/16 05:40:09;;;;;;;7.70;4.67;;;16.30;99.90;;;;;;5018243;28;20464;-61
2022/07/16 05:42:36;;;;;;;6.40;4.80;;;16.50;99.90;;;;;;5018303;28;20467;-59
2022/07/16 05:45:08;;;;;;;4.90;4.40;;;16.50;99.90;;;;;;5018306;28;20464;-61
2022/07/16 05:47:36;;;;;;;5.00;4.50;;;16.60;99.90;;;;;;5017707;28;20496;-61
2022/07/16 05:50:05;;;;;;;9.23;5.10;;;16.80;99.90;;;;;;5017902;28;20447;-61
2022/07/16 05:52:36;;;;;;;9.40;5.00;;;16.90;99.90;;;;;;5018147;28;20835;-61
2022/07/16 05:55:04;;;;;;;7.73;5.30;;;17.00;99.90;;;;;;5018214;28;20566;-61
2022/07/16 05:57:34;;;;;;;7.63;5.60;;;17.00;99.90;;;;;;5017714;28;20562;-61
2022/07/16 06:00:01;;;;;;;8.60;4.70;;;17.10;99.90;;;;;;5017510;28;20472;-61
2022/07/16 06:02:32;;;;;;;6.30;4.57;;;17.10;99.90;;;;;;5017966;28;20463;-61
2022/07/16 06:05:05;;;;;;;6.13;5.50;;;17.00;99.90;;;;;;5018293;28;20491;-61
2022/07/16 06:07:37;;;;;;;6.00;4.50;;;16.90;99.90;;;;;;5017590;28;20559;-61
2022/07/16 06:10:06;;;;;;;6.10;5.27;;;16.90;99.90;;;;;;5017700;28;20502;-61
2022/07/16 06:12:33;;;;;;;7.53;4.93;;;17.00;99.90;;;;;;5017037;28;20452;-61
2022/07/16 06:15:03;;;;;;;7.10;5.17;;;17.10;99.90;;;;;;5016907;28;20808;-61
2022/07/16 06:17:36;;;;;;;7.97;6.03;;;17.20;99.90;;;;;;5017946;28;20881;-61
2022/07/16 06:20:06;;;;;;;8.73;5.50;;;17.30;99.90;;;;;;5017698;28;20547;-61
2022/07/16 06:22:37;;;;;;;5.97;5.40;;;17.20;99.90;;;;;;5017518;28;20459;-61
2022/07/16 06:25:05;;;;;;;9.30;5.50;;;17.20;99.90;;;;;;5017550;28;20460;-61
2022/07/16 06:27:32;;;;;;;6.40;5.13;;;17.30;99.90;;;;;;5017285;28;20586;-61
2022/07/16 06:30:05;;;;;;;10.73;5.77;;;17.50;99.90;;;;;;5017271;28;20514;-61
2022/07/16 06:32:32;;;;;;;6.10;4.83;;;17.50;99.90;;;;;;5017928;28;20490;-61
2022/07/16 06:35:00;;;;;;;8.93;5.90;;;17.70;99.90;;;;;;5017441;28;20805;-61
2022/07/16 06:37:27;;;;;;;7.40;5.43;;;17.90;99.90;;;;;;5016995;28;20499;-61
2022/07/16 06:39:59;;;;;;;8.47;5.90;;;18.20;99.90;;;;;;5017294;28;20541;-61
2022/07/16 06:42:26;;;;;;;8.30;6.27;;;18.20;99.90;;;;;;5016867;28;20816;-61
2022/07/16 06:44:54;;;;;;;8.07;5.30;;;18.30;99.90;;;;;;5017556;28;20563;-61
2022/07/16 06:47:21;;;;;;;7.73;5.77;;;18.40;99.90;;;;;;5021965;28;20488;-61
2022/07/16 06:49:48;;;;;;;9.27;6.03;;;18.90;99.90;;;;;;5023730;28;20463;-62
2022/07/16 06:52:16;;;;;;;9.20;5.70;;;19.10;99.90;;;;;;5023752;28;20464;-61
2022/07/16 06:54:45;;;;;;;6.90;5.60;;;19.30;99.90;;;;;;5023884;28;20471;-61
2022/07/16 06:57:18;;;;;;;13.77;7.57;;;19.10;99.90;;;;;;5023662;28;20491;-61
2022/07/16 06:59:46;;;;;;;10.07;6.77;;;19.50;99.90;;;;;;5023465;28;20464;-61
2022/07/16 07:02:15;;;;;;;7.33;6.63;;;19.00;99.90;;;;;;5023719;28;20463;-61
2022/07/16 07:04:48;;;;;;;10.27;7.70;;;19.20;99.90;;;;;;5023838;28;20739;-62
2022/07/16 07:07:16;;;;;;;6.43;5.73;;;19.90;99.90;;;;;;5023402;28;20566;-61
2022/07/16 07:09:43;;;;;;;9.03;6.43;;;20.00;99.90;;;;;;5023856;28;20466;-61
2022/07/16 07:12:10;;;;;;;9.67;7.37;;;19.20;99.90;;;;;;5023424;28;20562;-60
2022/07/16 07:14:39;;;;;;;9.47;6.27;;;19.40;99.90;;;;;;5023423;28;20464;-62
2022/07/16 07:17:15;;;;;;;10.80;6.80;;;19.50;99.90;;;;;;5022700;28;20463;-61
2022/07/16 07:19:50;;;;;;;6.93;6.30;;;20.00;99.90;;;;;;5022702;28;20506;-61
2022/07/16 07:22:18;;;;;;;7.53;6.27;;;19.80;99.90;;;;;;5022572;28;20463;-62
2022/07/16 07:24:45;;;;;;;8.80;6.00;;;19.60;99.90;;;;;;5022745;28;20517;-61
2022/07/16 07:27:12;;;;;;;6.80;6.10;;;18.90;99.90;;;;;;5023080;28;20470;-61
2022/07/16 07:29:41;;;;;;;7.10;6.37;;;19.10;99.90;;;;;;5013833;28;20467;-61
2022/07/16 07:32:08;;;;;;;8.00;5.73;;;19.70;99.90;;;;;;5018864;28;20438;-62
2022/07/16 07:34:39;;;;;;;6.20;5.60;;;20.40;99.90;;;;;;5022655;28;20507;-63
2022/07/16 07:37:07;;;;;;;6.10;5.47;;;21.00;99.90;;;;;;5023189;28;20498;-62
2022/07/16 07:39:40;;;;;;;6.60;5.70;;;20.90;99.90;;;;;;5023191;28;20503;-62
2022/07/16 07:42:07;;;;;;;5.13;4.63;;;21.40;99.90;;;;;;5023270;28;20559;-62
2022/07/16 07:44:35;;;;;;;6.20;4.80;;;21.30;99.90;;;;;;5017453;28;20568;-62
2022/07/16 07:47:03;;;;;;;6.03;4.40;;;20.20;99.90;;;;;;5003310;28;20469;-61
2022/07/16 07:49:33;;;;;;;5.27;4.77;;;20.20;99.90;;;;;;5003055;28;20591;-59
2022/07/16 07:52:02;;;;;;;5.63;4.87;;;19.20;99.90;;;;;;5013281;28;20478;-58
2022/07/16 07:54:32;;;;;;;5.60;5.00;;;18.70;99.90;;;;;;5023305;28;20464;-60
2022/07/16 07:57:03;;;;;;;6.23;4.40;;;18.80;99.90;;;;;;5023060;28;20463;-61
2022/07/16 07:59:32;;;;;;;6.47;4.97;;;18.70;99.90;;;;;;5019648;28;20546;-61
2022/07/16 08:02:05;;;;;;;7.00;5.13;;;19.10;99.90;;;;;;5012824;28;20830;-61
2022/07/16 08:04:35;;;;;;;5.63;5.13;;;19.60;99.90;;;;;;4999417;28;20461;-61
2022/07/16 08:07:03;;;;;;;5.10;4.60;;;19.80;99.90;;;;;;4998658;28;20571;-61
2022/07/16 08:09:30;;;;;;;5.93;4.30;;;19.20;99.90;;;;;;4999354;28;20595;-62
2022/07/16 08:11:59;;;;;;;5.40;4.60;;;19.80;99.90;;;;;;4998774;28;20563;-62
2022/07/16 08:14:29;;;;;;;6.13;4.37;;;20.00;99.90;;;;;;5000282;28;20564;-61
2022/07/16 08:17:03;;;;;;;4.20;3.90;;;20.60;99.90;;;;;;5000951;28;20507;-62
2022/07/16 08:19:34;;;;;;;5.53;3.80;;;20.80;99.90;;;;;;5000374;28;20504;-62
2022/07/16 08:22:07;;;;;;;4.27;3.87;;;21.00;99.90;;;;;;4999886;28;20901;-62
2022/07/16 08:27:22;;;;;;;3.90;2.77;;;21.50;99.90;;;;;;4998930;28;20439;-58
2022/07/16 08:29:49;;;;;;;2.93;2.73;;;21.50;99.90;;;;;;4999414;28;20489;-62
2022/07/16 08:32:19;;;;;;;2.77;2.50;;;21.10;99.90;;;;;;5000081;28;20848;-61
2022/07/16 08:34:46;;;;;;;2.70;2.50;;;21.10;99.90;;;;;;4999972;28;20822;-60
2022/07/16 08:37:16;;;;;;;3.50;2.80;;;21.40;99.90;;;;;;5008583;28;20488;-51
2022/07/16 08:39:47;;;;;;;4.27;2.93;;;21.60;99.90;;;;;;5005110;28;20457;-61
2022/07/16 08:42:17;;;;;;;3.27;3.07;;;22.50;99.90;;;;;;4999818;28;20471;-61
2022/07/16 08:44:46;;;;;;;5.23;2.90;;;23.40;99.90;;;;;;4998779;28;20900;-59
2022/07/16 08:47:13;;;;;;;3.30;2.53;;;22.80;99.90;;;;;;4999061;28;20492;-60
2022/07/16 08:49:44;;;;;;;2.77;2.57;;;21.60;99.90;;;;;;4999067;28;20551;-61
2022/07/16 08:52:13;;;;;;;4.67;3.43;;;20.70;99.90;;;;;;4999425;28;20473;-61
2022/07/16 08:54:44;;;;;;;2.60;2.50;;;20.80;99.90;;;;;;4999586;28;20502;-61
2022/07/16 08:57:16;;;;;;;3.90;2.50;;;20.90;99.90;;;;;;4999892;28;20870;-62
2022/07/16 08:59:45;;;;;;;4.10;2.73;;;20.70;99.90;;;;;;4999093;28;20782;-61
2022/07/16 09:02:15;;;;;;;4.10;2.60;;;20.50;99.90;;;;;;4998140;28;20701;-61
2022/07/16 09:04:43;;;;;;;4.47;2.90;;;20.60;99.90;;;;;;4999232;28;20440;-61
2022/07/16 09:07:13;;;;;;;2.53;2.33;;;20.80;99.90;;;;;;4997947;28;20523;-60
2022/07/16 09:09:49;;;;;;;5.93;3.27;;;20.90;99.90;;;;;;4997173;28;20497;-59
2022/07/16 09:12:38;;;;;;;3.87;2.50;;;21.00;99.90;;;;;;4998944;28;20551;-61
2022/07/16 09:15:28;;;;;;;7.00;2.80;;;20.80;99.90;;;;;;4999346;28;20461;-61
2022/07/16 09:18:12;;;;;;;3.30;2.10;;;21.10;99.90;;;;;;4998934;28;20469;-61
2022/07/16 09:20:41;;;;;;;3.90;2.40;;;21.00;99.90;;;;;;4997720;28;20897;-57
2022/07/16 09:23:47;;;;;;;2.30;2.10;;;20.70;99.90;;;;;;4997742;28;20543;-61
2022/07/16 09:26:18;;;;;;;2.97;2.17;;;20.50;99.90;;;;;;4995402;28;20552;-60
2022/07/16 09:28:47;;;;;;;9.50;2.53;;;20.50;99.90;;;;;;4998751;28;20503;-61
2022/07/16 09:31:43;;;;;;;2.77;2.37;;;21.50;99.90;;;;;;4998232;28;20460;-61
2022/07/16 09:34:12;;;;;;;3.13;2.40;;;21.90;99.90;;;;;;5014473;28;20464;-61
2022/07/16 09:36:42;;;;;;;4.13;2.87;;;22.00;99.90;;;;;;5017595;28;20546;-59
2022/07/16 09:39:11;;;;;;;4.43;3.10;;;21.30;99.90;;;;;;5018096;28;20445;-58
2022/07/16 09:41:44;;;;;;;6.73;3.60;;;20.90;99.90;;;;;;5017873;28;20491;-61
2022/07/16 09:44:16;;;;;;;7.23;2.80;;;20.60;99.90;;;;;;5016924;28;20475;-61
2022/07/16 09:47:02;;;;;;;4.00;2.60;;;21.10;99.90;;;;;;5001532;28;20525;-61
2022/07/16 09:49:31;;;;;;;5.20;2.83;;;21.40;99.90;;;;;;4978803;28;20497;-62
2022/07/16 09:52:02;;;;;;;5.03;2.97;;;21.20;99.90;;;;;;4977660;28;20565;-60
2022/07/16 09:54:39;;;;;;;4.93;2.57;;;21.60;99.90;;;;;;4979044;28;20466;-58
2022/07/16 09:57:21;;;;;;;3.90;2.70;;;21.40;99.90;;;;;;4979094;28;20560;-59
2022/07/16 09:59:49;;;;;;;3.10;2.37;;;21.50;99.90;;;;;;4977361;28;20468;-61
2022/07/16 10:02:16;;;;;;;2.77;2.27;;;21.50;99.90;;;;;;4977360;28;20440;-58
2022/07/16 10:04:45;;;;;;;2.90;2.70;;;21.30;99.90;;;;;;4978581;28;20565;-58
2022/07/16 10:07:20;;;;;;;2.90;2.70;;;20.60;99.90;;;;;;4977714;28;20563;-60
2022/07/16 10:09:48;;;;;;;2.27;2.07;;;21.00;99.90;;;;;;4978607;28;20763;-61
2022/07/16 10:12:22;;;;;;;3.23;2.57;;;22.10;99.90;;;;;;4978336;28;20556;-57
2022/07/16 10:14:52;;;;;;;4.20;2.40;;;23.00;99.90;;;;;;4978816;28;20469;-61
2022/07/16 10:17:23;;;;;;;3.33;2.17;;;23.40;99.90;;;;;;4998509;28;20501;-61
2022/07/16 10:20:06;;;;;;;2.53;2.33;;;23.60;99.90;;;;;;4999549;28;20543;-61
2022/07/16 10:22:47;;;;;;;4.40;2.80;;;23.00;99.90;;;;;;4979606;28;20466;-58
2022/07/16 10:25:17;;;;;;;2.97;2.43;;;22.60;99.90;;;;;;4979097;28;20501;-59
2022/07/16 10:27:46;;;;;;;5.13;3.00;;;22.20;99.90;;;;;;4978160;28;20472;-59
2022/07/16 10:30:16;;;;;;;3.03;2.37;;;21.20;99.90;;;;;;4985743;28;20496;-54
2022/07/16 10:33:12;;;;;;;3.83;2.97;;;21.30;99.90;;;;;;4997686;28;20739;-59
2022/07/16 10:35:44;;;;;;;3.40;2.60;;;22.10;99.90;;;;;;4993973;28;20505;-61
2022/07/16 10:38:13;;;;;;;3.30;2.67;;;23.40;99.90;;;;;;4994610;28;20567;-58
2022/07/16 10:40:43;;;;;;;4.17;3.07;;;24.60;99.90;;;;;;4997772;28;20854;-61
2022/07/16 10:43:18;;;;;;;3.93;2.57;;;25.60;99.90;;;;;;4997732;28;20964;-57
2022/07/16 10:45:55;;;;;;;3.73;2.50;;;25.90;99.90;;;;;;4997394;28;20472;-60
2022/07/16 10:48:24;;;;;;;4.03;2.63;;;25.80;99.90;;;;;;4997590;28;20472;-61
2022/07/16 10:51:18;;;;;;;7.03;2.47;;;25.70;99.90;;;;;;4997734;28;20469;-61
2022/07/16 10:54:31;;;;;;;3.17;2.83;;;25.30;99.90;;;;;;4997484;28;20548;-60
2022/07/16 10:57:00;;;;;;;2.90;2.30;;;25.30;99.90;;;;;;5007238;28;20546;-61
2022/07/16 10:59:40;;;;;;;4.53;2.53;;;24.10;99.90;;;;;;5017399;28;20554;-59
2022/07/16 11:02:09;;;;;;;3.80;2.07;;;23.70;99.90;;;;;;5017060;28;20558;-61
2022/07/16 11:04:38;;;;;;;2.37;2.13;;;23.90;99.90;;;;;;5016755;28;20987;-59
2022/07/16 11:07:11;;;;;;;4.57;3.30;;;23.80;99.90;;;;;;5017052;28;20510;-56
2022/07/16 11:09:42;;;;;;;3.07;2.70;;;22.00;99.90;;;;;;5016638;28;20587;-58
2022/07/16 11:12:12;;;;;;;3.00;2.70;;;21.70;99.90;;;;;;5017297;28;20743;-60
2022/07/16 11:14:47;;;;;;;2.83;2.53;;;22.20;99.90;;;;;;5016598;28;20952;-61
2022/07/16 11:17:16;;;;;;;3.40;2.17;;;22.90;99.90;;;;;;5016841;28;20478;-59
2022/07/16 11:19:45;;;;;;;2.60;2.37;;;23.40;99.90;;;;;;5017244;28;20546;-60
2022/07/16 11:22:13;;;;;;;3.20;2.20;;;23.60;99.90;;;;;;5017147;28;20551;-57
2022/07/16 11:24:55;;;;;;;3.60;2.90;;;24.00;99.90;;;;;;5016877;28;20499;-61
2022/07/16 11:27:28;;;;;;;2.83;2.57;;;25.10;99.90;;;;;;5017001;28;20487;-59
2022/07/16 11:29:58;;;;;;;3.10;2.77;;;26.20;99.90;;;;;;5016821;28;20495;-56
2022/07/16 11:32:31;;;;;;;4.60;2.20;;;24.90;99.90;;;;;;5015811;28;20541;-55
2022/07/16 11:35:05;;;;;;;3.57;3.23;;;24.90;99.90;;;;;;5020456;28;20479;-61
2022/07/16 11:37:48;;;;;;;4.00;2.53;;;24.90;99.90;;;;;;5020271;28;20498;-60
2022/07/16 11:40:15;;;;;;;4.30;2.60;;;25.90;99.90;;;;;;5020024;28;20553;-53
2022/07/16 11:42:48;;;;;;;3.80;2.43;;;25.60;99.90;;;;;;5019403;28;20802;-57
2022/07/16 11:45:19;;;;;;;3.80;2.60;;;24.30;99.90;;;;;;5017897;28;20836;-58
2022/07/16 11:48:13;;;;;;;4.40;3.00;;;24.40;99.90;;;;;;5019365;28;20464;-57
2022/07/16 11:50:42;;;;;;;3.50;2.80;;;25.00;99.90;;;;;;5020145;28;21006;-59
2022/07/16 11:53:11;;;;;;;3.30;2.67;;;24.00;99.90;;;;;;5020306;28;20888;-58
2022/07/16 11:55:44;;;;;;;2.80;2.40;;;24.50;99.90;;;;;;5020130;28;20527;-59
2022/07/16 11:58:14;;;;;;;8.83;2.80;;;24.90;99.90;;;;;;5019480;28;20442;-57
2022/07/16 12:00:48;;;;;;;3.70;2.60;;;25.30;99.90;;;;;;5020667;28;20885;-61
2022/07/16 12:03:19;;;;;;;2.80;2.47;;;24.90;99.90;;;;;;5019599;28;20531;-60
2022/07/16 12:05:46;;;;;;;5.20;3.10;;;23.20;99.90;;;;;;5019299;28;20467;-55
2022/07/16 12:08:18;;;;;;;2.80;2.40;;;23.30;99.90;;;;;;5019093;28;20555;-58
2022/07/16 12:10:56;;;;;;;2.43;2.03;;;24.10;99.90;;;;;;5019936;28;20560;-60
2022/07/16 12:13:26;;;;;;;2.73;2.40;;;24.80;99.90;;;;;;5019942;28;20926;-56
2022/07/16 12:15:57;;;;;;;2.77;2.57;;;25.70;99.90;;;;;;5019443;28;20443;-58
2022/07/16 12:18:27;;;;;;;5.77;3.30;;;25.50;99.90;;;;;;5019882;28;20442;-60
2022/07/16 12:20:55;;;;;;;2.43;2.20;;;24.90;99.90;;;;;;5019678;28;20467;-60
2022/07/16 12:23:39;;;;;;;3.10;2.80;;;24.10;99.90;;;;;;5019138;28;20467;-60
2022/07/16 12:26:07;;;;;;;3.80;2.40;;;23.10;99.90;;;;;;5019536;28;20519;-60
2022/07/16 12:28:35;;;;;;;4.00;2.53;;;23.10;99.90;;;;;;5019809;28;20885;-60
2022/07/16 12:31:11;;;;;;;4.10;2.47;;;24.10;99.90;;;;;;5016702;28;20492;-57
2022/07/16 12:33:39;;;;;;;3.50;2.30;;;24.10;99.90;;;;;;4998876;28;20492;-54
2022/07/16 12:36:12;;;;;;;3.10;2.30;;;24.30;99.90;;;;;;4998898;28;20505;-60
2022/07/16 12:38:49;;;;;;;6.00;3.23;;;24.60;99.90;;;;;;5013697;28;20487;-57
2022/07/16 12:41:19;;;;;;;3.20;2.40;;;25.10;99.90;;;;;;5017524;28;20888;-59
2022/07/16 12:43:53;;;;;;;3.40;2.60;;;24.80;99.90;;;;;;5016909;28;20916;-60
2022/07/16 12:46:23;;;;;;;3.70;2.63;;;25.00;99.90;;;;;;5019283;28;20487;-61
2022/07/16 12:48:52;;;;;;;2.57;2.00;;;26.10;99.90;;;;;;5018060;28;20567;-61
2022/07/16 12:51:23;;;;;;;4.47;2.40;;;25.90;99.90;;;;;;5017802;28;20476;-60
2022/07/16 12:53:51;;;;;;;3.23;2.47;;;25.30;99.90;;;;;;5019365;28;20468;-60
2022/07/16 12:59:04;;;;;;;4.23;2.50;;;24.50;99.90;;;;;;5018619;28;20434;-58
2022/07/16 13:01:39;;;;;;;4.20;2.53;;;24.20;99.90;;;;;;5020106;28;20504;-54
2022/07/16 13:04:06;;;;;;;4.40;2.63;;;24.80;99.90;;;;;;5018954;28;20438;-58
2022/07/16 13:06:37;;;;;;;3.77;2.90;;;25.10;99.90;;;;;;5018692;28;20571;-54
2022/07/16 13:09:08;;;;;;;2.83;2.40;;;26.00;99.90;;;;;;5013868;28;20516;-60
2022/07/16 13:11:41;;;;;;;2.33;2.13;;;25.60;99.90;;;;;;5018999;28;20468;-56